createdAt,value
2018-07-12T00:00:39.629Z,1018.13
2018-07-12T00:01:39.556Z,1018.13
2018-07-12T00:02:39.553Z,1018.16
2018-07-12T00:03:39.567Z,1018.15
2018-07-12T00:04:39.575Z,1018.17
2018-07-12T00:05:39.592Z,1018.16
2018-07-12T00:06:39.564Z,1018.16
2018-07-12T00:07:39.572Z,1018.15
2018-07-12T00:08:39.559Z,1018.2
2018-07-12T00:09:39.555Z,1018.16
2018-07-12T00:10:39.571Z,1018.16
2018-07-12T00:11:39.545Z,1018.17
2018-07-12T00:12:39.576Z,1018.16
2018-07-12T00:13:39.576Z,1018.13
2018-07-12T00:14:39.611Z,1018.13
2018-07-12T00:15:39.547Z,1018.13
2018-07-12T00:16:39.560Z,1018.13
2018-07-12T00:17:39.589Z,1018.12
2018-07-12T00:18:39.567Z,1018.13
2018-07-12T00:19:39.582Z,1018.13
2018-07-12T00:20:39.581Z,1018.16
2018-07-12T00:21:39.578Z,1018.17
2018-07-12T00:22:39.585Z,1018.17
2018-07-12T00:23:39.548Z,1018.15
2018-07-12T00:24:39.566Z,1018.14
2018-07-12T00:25:39.573Z,1018.16
2018-07-12T00:26:39.623Z,1018.15
2018-07-12T00:27:39.572Z,1018.1
2018-07-12T00:28:39.629Z,1018.09
2018-07-12T00:29:39.563Z,1018.06
2018-07-12T00:30:39.695Z,1018.08
2018-07-12T00:31:39.677Z,1018.06
2018-07-12T00:32:39.660Z,1018.05
2018-07-12T00:33:39.706Z,1018.01
2018-07-12T00:34:39.581Z,1018.02
2018-07-12T00:35:39.580Z,1018.04
2018-07-12T00:36:39.552Z,1018.04
2018-07-12T00:37:39.573Z,1018.05
2018-07-12T00:38:39.613Z,1018.06
2018-07-12T00:39:39.571Z,1018.07
2018-07-12T00:40:39.566Z,1018.08
2018-07-12T00:41:39.617Z,1018.08
2018-07-12T00:42:39.684Z,1018.07
2018-07-12T00:43:39.572Z,1018.09
2018-07-12T00:44:39.582Z,1018.08
2018-07-12T00:45:39.582Z,1018.07
2018-07-12T00:46:39.583Z,1018.05
2018-07-12T00:47:39.618Z,1018.09
2018-07-12T00:48:39.604Z,1018.05
2018-07-12T00:49:39.581Z,1018.07
2018-07-12T00:50:39.648Z,1018.05
2018-07-12T00:51:39.625Z,1018.05
2018-07-12T00:52:39.765Z,1018.07
2018-07-12T00:53:39.565Z,1018.08
2018-07-12T00:54:39.575Z,1018.1
2018-07-12T00:55:39.631Z,1018.06
2018-07-12T00:56:39.620Z,1018.11
2018-07-12T00:57:39.636Z,1018.06
2018-07-12T00:58:39.640Z,1018.05
2018-07-12T00:59:39.618Z,1018.06
2018-07-12T01:00:39.650Z,1018.04
2018-07-12T01:01:39.603Z,1018.02
2018-07-12T01:02:39.619Z,1018
2018-07-12T01:03:39.793Z,1018.01
2018-07-12T01:04:39.588Z,1018.02
2018-07-12T01:05:39.715Z,1018.03
2018-07-12T01:06:39.668Z,1018.04
2018-07-12T01:07:39.607Z,1018.04
2018-07-12T01:08:39.666Z,1018.06
2018-07-12T01:09:39.601Z,1018.05
2018-07-12T01:10:39.596Z,1018.03
2018-07-12T01:11:39.635Z,1018.07
2018-07-12T01:12:39.630Z,1018.03
2018-07-12T01:13:39.662Z,1018.05
2018-07-12T01:14:39.774Z,1018.04
2018-07-12T01:15:39.764Z,1018.04
2018-07-12T01:16:39.895Z,1018.04
2018-07-12T01:17:39.942Z,1018.03
2018-07-12T01:18:39.669Z,1018.04
2018-07-12T01:19:39.699Z,1018.04
2018-07-12T01:20:39.801Z,1018
2018-07-12T01:21:39.621Z,1018.03
2018-07-12T01:22:39.775Z,1018.01
2018-07-12T01:23:39.654Z,1017.99
2018-07-12T01:24:39.727Z,1017.99
2018-07-12T01:25:39.651Z,1017.99
2018-07-12T01:26:39.645Z,1017.95
2018-07-12T01:27:39.603Z,1017.96
2018-07-12T01:28:39.649Z,1017.91
2018-07-12T01:29:39.701Z,1017.94
2018-07-12T01:30:39.709Z,1017.9
2018-07-12T01:31:39.722Z,1017.98
2018-07-12T01:32:39.706Z,1017.97
2018-07-12T01:33:39.652Z,1017.97
2018-07-12T01:34:39.723Z,1017.94
2018-07-12T01:35:39.717Z,1017.98
2018-07-12T01:36:39.606Z,1018.01
2018-07-12T01:37:39.649Z,1017.98
2018-07-12T01:38:39.616Z,1018.02
2018-07-12T01:39:39.614Z,1018
2018-07-12T01:40:39.648Z,1018.04
2018-07-12T01:41:39.632Z,1017.98
2018-07-12T01:42:39.598Z,1018.02
2018-07-12T01:43:39.867Z,1018.02
2018-07-12T01:44:39.672Z,1018
2018-07-12T01:45:39.616Z,1018.01
2018-07-12T01:46:39.702Z,1017.99
2018-07-12T01:47:39.628Z,1018.01
2018-07-12T01:48:39.653Z,1017.99
2018-07-12T01:49:39.637Z,1018
2018-07-12T01:50:39.624Z,1018.01
2018-07-12T01:51:39.682Z,1018
2018-07-12T01:52:39.673Z,1017.99
2018-07-12T01:53:39.627Z,1018
2018-07-12T01:54:39.652Z,1017.97
2018-07-12T01:55:39.713Z,1018.02
2018-07-12T01:56:39.647Z,1018.01
2018-07-12T01:57:39.653Z,1017.97
2018-07-12T01:58:39.910Z,1017.98
2018-07-12T01:59:39.640Z,1017.99
2018-07-12T02:00:39.854Z,1018.02
2018-07-12T02:01:39.807Z,1017.98
2018-07-12T02:02:39.638Z,1018
2018-07-12T02:03:39.644Z,1018.02
2018-07-12T02:04:39.681Z,1017.97
2018-07-12T02:05:39.707Z,1018
2018-07-12T02:06:39.624Z,1017.99
2018-07-12T02:07:39.638Z,1017.96
2018-07-12T02:08:39.648Z,1018.04
2018-07-12T02:09:39.719Z,1018.03
2018-07-12T02:10:39.696Z,1018.04
2018-07-12T02:11:39.650Z,1017.97
2018-07-12T02:12:39.639Z,1017.96
2018-07-12T02:13:39.811Z,1017.98
2018-07-12T02:14:39.651Z,1017.99
2018-07-12T02:15:39.658Z,1017.97
2018-07-12T02:16:39.640Z,1017.92
2018-07-12T02:17:39.642Z,1017.94
2018-07-12T02:18:39.698Z,1017.91
2018-07-12T02:19:39.629Z,1017.93
2018-07-12T02:20:39.630Z,1017.91
2018-07-12T02:21:39.643Z,1017.93
2018-07-12T02:22:39.681Z,1017.92
2018-07-12T02:23:39.657Z,1017.95
2018-07-12T02:24:39.650Z,1017.91
2018-07-12T02:25:39.687Z,1017.94
2018-07-12T02:26:39.660Z,1017.89
2018-07-12T02:27:39.940Z,1017.93
2018-07-12T02:28:39.720Z,1017.92
2018-07-12T02:29:39.701Z,1017.88
2018-07-12T02:30:39.682Z,1017.91
2018-07-12T02:31:39.656Z,1017.91
2018-07-12T02:32:39.692Z,1017.91
2018-07-12T02:33:39.656Z,1017.92
2018-07-12T02:34:39.685Z,1017.94
2018-07-12T02:35:39.649Z,1017.92
2018-07-12T02:36:39.705Z,1017.93
2018-07-12T02:37:39.648Z,1017.98
2018-07-12T02:38:39.659Z,1017.93
2018-07-12T02:39:39.706Z,1017.96
2018-07-12T02:40:39.699Z,1017.98
2018-07-12T02:41:39.648Z,1017.97
2018-07-12T02:42:39.669Z,1017.98
2018-07-12T02:43:39.675Z,1017.98
2018-07-12T02:44:39.725Z,1018
2018-07-12T02:45:39.673Z,1017.99
2018-07-12T02:46:39.682Z,1018.02
2018-07-12T02:47:39.646Z,1018.01
2018-07-12T02:48:39.643Z,1018.02
2018-07-12T02:49:39.686Z,1018.04
2018-07-12T02:50:39.692Z,1018.03
2018-07-12T02:51:39.659Z,1018.06
2018-07-12T02:52:39.672Z,1018.06
2018-07-12T02:53:39.681Z,1018.1
2018-07-12T02:54:39.646Z,1018.1
2018-07-12T02:55:39.648Z,1018.06
2018-07-12T02:56:39.709Z,1018.06
2018-07-12T02:57:39.690Z,1018.05
2018-07-12T02:58:39.676Z,1018.09
2018-07-12T02:59:39.638Z,1018.1
2018-07-12T03:00:39.664Z,1018.08
2018-07-12T03:01:39.751Z,1018.09
2018-07-12T03:02:39.747Z,1018.11
2018-07-12T03:03:39.695Z,1018.08
2018-07-12T03:04:39.844Z,1018.11
2018-07-12T03:05:39.663Z,1018.13
2018-07-12T03:06:39.797Z,1018.1
2018-07-12T03:07:39.678Z,1018.1
2018-07-12T03:08:39.869Z,1018.14
2018-07-12T03:09:39.846Z,1018.13
2018-07-12T03:10:39.759Z,1018.13
2018-07-12T03:11:39.728Z,1018.16
2018-07-12T03:12:39.804Z,1018.16
2018-07-12T03:13:40.183Z,1018.16
2018-07-12T03:14:40.132Z,1018.14
2018-07-12T03:15:39.665Z,1018.17
2018-07-12T03:16:39.897Z,1018.17
2018-07-12T03:17:39.735Z,1018.18
2018-07-12T03:18:39.704Z,1018.17
2018-07-12T03:19:39.680Z,1018.12
2018-07-12T03:20:39.711Z,1018.09
2018-07-12T03:21:39.674Z,1018.15
2018-07-12T03:22:39.997Z,1018.13
2018-07-12T03:23:39.708Z,1018.11
2018-07-12T03:24:39.748Z,1018.14
2018-07-12T03:25:39.678Z,1018.17
2018-07-12T03:26:39.924Z,1018.17
2018-07-12T03:27:39.768Z,1018.19
2018-07-12T03:28:39.783Z,1018.18
2018-07-12T03:29:39.689Z,1018.16
2018-07-12T03:30:39.693Z,1018.18
2018-07-12T03:31:39.835Z,1018.2
2018-07-12T03:32:39.684Z,1018.23
2018-07-12T03:33:39.989Z,1018.19
2018-07-12T03:34:39.671Z,1018.22
2018-07-12T03:35:39.728Z,1018.19
2018-07-12T03:36:39.751Z,1018.21
2018-07-12T03:37:39.683Z,1018.21
2018-07-12T03:38:39.741Z,1018.24
2018-07-12T03:39:39.713Z,1018.2
2018-07-12T03:40:39.905Z,1018.19
2018-07-12T03:41:39.674Z,1018.21
2018-07-12T03:42:39.736Z,1018.22
2018-07-12T03:43:39.679Z,1018.22
2018-07-12T03:44:39.742Z,1018.23
2018-07-12T03:45:39.699Z,1018.27
2018-07-12T03:46:39.680Z,1018.23
2018-07-12T03:47:39.965Z,1018.25
2018-07-12T03:48:40.286Z,1018.27
2018-07-12T03:49:39.717Z,1018.27
2018-07-12T03:50:39.723Z,1018.28
2018-07-12T03:51:39.732Z,1018.24
2018-07-12T03:52:39.728Z,1018.25
2018-07-12T03:53:39.702Z,1018.28
2018-07-12T03:54:39.679Z,1018.28
2018-07-12T03:55:39.811Z,1018.29
2018-07-12T03:56:39.788Z,1018.27
2018-07-12T03:57:39.778Z,1018.26
2018-07-12T03:58:39.709Z,1018.22
2018-07-12T03:59:39.698Z,1018.22
2018-07-12T04:00:39.706Z,1018.26
2018-07-12T04:01:39.699Z,1018.21
2018-07-12T04:02:39.753Z,1018.27
2018-07-12T04:03:39.884Z,1018.28
2018-07-12T04:04:40.829Z,1018.26
2018-07-12T04:05:39.686Z,1018.27
2018-07-12T04:06:39.702Z,1018.28
2018-07-12T04:07:39.703Z,1018.31
2018-07-12T04:08:39.704Z,1018.28
2018-07-12T04:09:39.718Z,1018.26
2018-07-12T04:10:39.701Z,1018.27
2018-07-12T04:11:39.748Z,1018.25
2018-07-12T04:12:39.700Z,1018.31
2018-07-12T04:13:39.709Z,1018.31
2018-07-12T04:14:39.853Z,1018.27
2018-07-12T04:15:39.954Z,1018.3
2018-07-12T04:16:39.717Z,1018.28
2018-07-12T04:17:39.745Z,1018.32
2018-07-12T04:18:39.988Z,1018.33
2018-07-12T04:19:39.735Z,1018.34
2018-07-12T04:20:39.840Z,1018.3
2018-07-12T04:21:39.714Z,1018.33
2018-07-12T04:22:39.727Z,1018.32
2018-07-12T04:23:39.736Z,1018.33
2018-07-12T04:24:39.786Z,1018.33
2018-07-12T04:25:39.825Z,1018.34
2018-07-12T04:26:39.721Z,1018.35
2018-07-12T04:27:39.743Z,1018.34
2018-07-12T04:28:39.866Z,1018.33
2018-07-12T04:29:39.908Z,1018.33
2018-07-12T04:30:40.959Z,1018.36
2018-07-12T04:31:39.900Z,1018.35
2018-07-12T04:32:39.968Z,1018.35
2018-07-12T04:33:39.739Z,1018.36
2018-07-12T04:34:40.017Z,1018.36
2018-07-12T04:35:39.731Z,1018.35
2018-07-12T04:36:40.270Z,1018.4
2018-07-12T04:37:40.148Z,1018.4
2018-07-12T04:38:40.119Z,1018.38
2018-07-12T04:39:39.721Z,1018.38
2018-07-12T04:40:39.809Z,1018.43
2018-07-12T04:41:39.740Z,1018.41
2018-07-12T04:42:39.733Z,1018.39
2018-07-12T04:43:39.771Z,1018.42
2018-07-12T04:44:39.734Z,1018.4
2018-07-12T04:45:39.751Z,1018.36
2018-07-12T04:46:39.740Z,1018.36
2018-07-12T04:47:39.718Z,1018.35
2018-07-12T04:48:39.733Z,1018.33
2018-07-12T04:49:39.744Z,1018.4
2018-07-12T04:50:39.763Z,1018.36
2018-07-12T04:51:39.879Z,1018.38
2018-07-12T04:52:39.762Z,1018.34
2018-07-12T04:53:39.753Z,1018.34
2018-07-12T04:54:39.840Z,1018.35
2018-07-12T04:55:39.768Z,1018.36
2018-07-12T04:56:39.764Z,1018.37
2018-07-12T04:57:39.757Z,1018.38
2018-07-12T04:58:40.007Z,1018.4
2018-07-12T04:59:39.751Z,1018.4
2018-07-12T05:00:39.754Z,1018.42
2018-07-12T05:01:39.903Z,1018.46
2018-07-12T05:02:39.736Z,1018.46
2018-07-12T05:03:39.740Z,1018.45
2018-07-12T05:04:39.737Z,1018.47
2018-07-12T05:05:40.073Z,1018.47
2018-07-12T05:06:39.722Z,1018.46
2018-07-12T05:07:39.762Z,1018.46
2018-07-12T05:08:39.816Z,1018.44
2018-07-12T05:09:39.762Z,1018.47
2018-07-12T05:10:39.741Z,1018.45
2018-07-12T05:11:39.728Z,1018.49
2018-07-12T05:12:39.757Z,1018.47
2018-07-12T05:13:39.758Z,1018.48
2018-07-12T05:14:39.762Z,1018.45
2018-07-12T05:15:39.791Z,1018.49
2018-07-12T05:16:39.719Z,1018.49
2018-07-12T05:17:39.756Z,1018.51
2018-07-12T05:18:39.765Z,1018.55
2018-07-12T05:19:39.785Z,1018.52
2018-07-12T05:20:39.748Z,1018.51
2018-07-12T05:21:39.771Z,1018.54
2018-07-12T05:22:39.781Z,1018.52
2018-07-12T05:23:39.766Z,1018.53
2018-07-12T05:24:39.750Z,1018.55
2018-07-12T05:25:39.760Z,1018.55
2018-07-12T05:26:39.765Z,1018.54
2018-07-12T05:27:39.751Z,1018.54
2018-07-12T05:28:39.742Z,1018.55
2018-07-12T05:29:39.763Z,1018.52
2018-07-12T05:30:39.860Z,1018.57
2018-07-12T05:31:39.759Z,1018.55
2018-07-12T05:32:39.788Z,1018.6
2018-07-12T05:33:39.792Z,1018.61
2018-07-12T05:34:39.748Z,1018.64
2018-07-12T05:35:39.774Z,1018.62
2018-07-12T05:36:39.756Z,1018.65
2018-07-12T05:37:39.747Z,1018.65
2018-07-12T05:38:39.981Z,1018.64
2018-07-12T05:39:39.921Z,1018.67
2018-07-12T05:40:39.794Z,1018.66
2018-07-12T05:41:39.774Z,1018.69
2018-07-12T05:42:40.046Z,1018.63
2018-07-12T05:43:39.760Z,1018.7
2018-07-12T05:44:39.752Z,1018.68
2018-07-12T05:45:39.816Z,1018.69
2018-07-12T05:46:40.048Z,1018.67
2018-07-12T05:47:39.794Z,1018.69
2018-07-12T05:48:39.762Z,1018.67
2018-07-12T05:49:39.782Z,1018.65
2018-07-12T05:50:39.845Z,1018.71
2018-07-12T05:51:39.918Z,1018.72
2018-07-12T05:52:39.767Z,1018.74
2018-07-12T05:53:39.916Z,1018.79
2018-07-12T05:54:39.927Z,1018.77
2018-07-12T05:55:39.761Z,1018.8
2018-07-12T05:56:40.047Z,1018.82
2018-07-12T05:57:39.760Z,1018.81
2018-07-12T05:58:39.777Z,1018.85
2018-07-12T05:59:39.888Z,1018.8
2018-07-12T06:00:39.802Z,1018.81
2018-07-12T06:01:39.778Z,1018.83
2018-07-12T06:02:39.775Z,1018.83
2018-07-12T06:03:39.987Z,1018.86
2018-07-12T06:04:39.905Z,1018.84
2018-07-12T06:05:39.830Z,1018.84
2018-07-12T06:06:39.804Z,1018.88
2018-07-12T06:07:39.863Z,1018.85
2018-07-12T06:08:39.846Z,1018.89
2018-07-12T06:09:39.782Z,1018.85
2018-07-12T06:10:39.802Z,1018.93
2018-07-12T06:11:39.894Z,1018.93
2018-07-12T06:12:39.785Z,1018.94
2018-07-12T06:13:39.829Z,1018.98
2018-07-12T06:14:39.798Z,1018.96
2018-07-12T06:15:39.917Z,1018.98
2018-07-12T06:16:39.782Z,1018.97
2018-07-12T06:17:40.182Z,1018.97
2018-07-12T06:18:40.016Z,1018.94
2018-07-12T06:19:39.764Z,1018.97
2018-07-12T06:20:39.916Z,1018.98
2018-07-12T06:21:40.108Z,1019.01
2018-07-12T06:22:39.828Z,1018.97
2018-07-12T06:23:39.804Z,1019.04
2018-07-12T06:24:39.938Z,1019.03
2018-07-12T06:25:39.966Z,1019.05
2018-07-12T06:26:39.777Z,1019.09
2018-07-12T06:27:39.939Z,1019.08
2018-07-12T06:28:39.976Z,1019.08
2018-07-12T06:29:39.902Z,1019.05
2018-07-12T06:30:39.973Z,1019.09
2018-07-12T06:31:39.893Z,1019.12
2018-07-12T06:32:39.831Z,1019.14
2018-07-12T06:33:39.779Z,1019.14
2018-07-12T06:34:39.785Z,1019.13
2018-07-12T06:35:39.887Z,1019.16
2018-07-12T06:36:39.979Z,1019.16
2018-07-12T06:37:39.885Z,1019.21
2018-07-12T06:38:39.838Z,1019.15
2018-07-12T06:39:39.809Z,1019.17
2018-07-12T06:40:39.829Z,1019.18
2018-07-12T06:41:39.961Z,1019.13
2018-07-12T06:42:39.976Z,1019.19
2018-07-12T06:43:39.778Z,1019.19
2018-07-12T06:44:39.878Z,1019.18
2018-07-12T06:45:39.805Z,1019.21
2018-07-12T06:46:39.786Z,1019.21
2018-07-12T06:47:39.796Z,1019.18
2018-07-12T06:48:39.828Z,1019.15
2018-07-12T06:49:39.781Z,1019.16
2018-07-12T06:50:39.945Z,1019.19
2018-07-12T06:51:39.904Z,1019.17
2018-07-12T06:52:39.843Z,1019.22
2018-07-12T06:53:39.837Z,1019.23
2018-07-12T06:54:40.128Z,1019.23
2018-07-12T06:55:39.814Z,1019.23
2018-07-12T06:56:39.827Z,1019.25
2018-07-12T06:57:39.948Z,1019.21
2018-07-12T06:58:39.807Z,1019.22
2018-07-12T06:59:39.885Z,1019.22
2018-07-12T07:00:39.973Z,1019.23
2018-07-12T07:01:39.803Z,1019.21
2018-07-12T07:02:39.806Z,1019.26
2018-07-12T07:03:39.821Z,1019.23
2018-07-12T07:04:39.878Z,1019.24
2018-07-12T07:05:39.795Z,1019.24
2018-07-12T07:06:39.945Z,1019.24
2018-07-12T07:07:39.836Z,1019.24
2018-07-12T07:08:39.933Z,1019.25
2018-07-12T07:09:40.635Z,1019.23
2018-07-12T07:10:39.866Z,1019.26
2018-07-12T07:11:39.912Z,1019.27
2018-07-12T07:12:39.942Z,1019.22
2018-07-12T07:13:39.909Z,1019.21
2018-07-12T07:14:39.937Z,1019.22
2018-07-12T07:15:39.872Z,1019.19
2018-07-12T07:16:39.838Z,1019.16
2018-07-12T07:17:39.808Z,1019.19
2018-07-12T07:18:39.911Z,1019.25
2018-07-12T07:19:40.093Z,1019.16
2018-07-12T07:20:39.888Z,1019.22
2018-07-12T07:21:39.983Z,1019.2
2018-07-12T07:22:39.908Z,1019.21
2018-07-12T07:23:39.931Z,1019.24
2018-07-12T07:24:39.870Z,1019.22
2018-07-12T07:25:40.191Z,1019.2
2018-07-12T07:26:39.875Z,1019.23
2018-07-12T07:27:39.923Z,1019.18
2018-07-12T07:28:39.889Z,1019.23
2018-07-12T07:29:39.866Z,1019.26
2018-07-12T07:30:39.833Z,1019.22
2018-07-12T07:31:40.185Z,1019.22
2018-07-12T07:32:39.945Z,1019.23
2018-07-12T07:33:39.898Z,1019.28
2018-07-12T07:34:40.397Z,1019.28
2018-07-12T07:35:39.961Z,1019.29
2018-07-12T07:36:39.964Z,1019.29
2018-07-12T07:37:39.977Z,1019.3
2018-07-12T07:38:39.896Z,1019.31
2018-07-12T07:39:40.139Z,1019.29
2018-07-12T07:40:39.940Z,1019.3
2018-07-12T07:41:39.909Z,1019.32
2018-07-12T07:42:39.833Z,1019.31
2018-07-12T07:43:39.911Z,1019.31
2018-07-12T07:44:39.884Z,1019.29
2018-07-12T07:45:39.937Z,1019.28
2018-07-12T07:46:39.937Z,1019.32
2018-07-12T07:47:39.913Z,1019.33
2018-07-12T07:48:39.965Z,1019.31
2018-07-12T07:49:39.997Z,1019.37
2018-07-12T07:50:39.885Z,1019.35
2018-07-12T07:51:39.863Z,1019.36
2018-07-12T07:52:39.931Z,1019.39
2018-07-12T07:53:39.996Z,1019.42
2018-07-12T07:54:39.837Z,1019.39
2018-07-12T07:55:39.928Z,1019.38
2018-07-12T07:56:39.925Z,1019.44
2018-07-12T07:57:39.954Z,1019.47
2018-07-12T07:58:39.967Z,1019.43
2018-07-12T07:59:39.859Z,1019.47
2018-07-12T08:00:39.870Z,1019.43
2018-07-12T08:01:40.295Z,1019.42
2018-07-12T08:02:39.894Z,1019.49
2018-07-12T08:03:39.842Z,1019.47
2018-07-12T08:04:39.895Z,1019.48
2018-07-12T08:05:39.881Z,1019.46
2018-07-12T08:06:39.865Z,1019.48
2018-07-12T08:07:39.845Z,1019.47
2018-07-12T08:08:39.868Z,1019.46
2018-07-12T08:09:39.874Z,1019.42
2018-07-12T08:10:39.838Z,1019.46
2018-07-12T08:11:39.865Z,1019.44
2018-07-12T08:12:39.858Z,1019.41
2018-07-12T08:13:39.861Z,1019.38
2018-07-12T08:14:39.884Z,1019.42
2018-07-12T08:15:39.867Z,1019.42
2018-07-12T08:16:39.895Z,1019.44
2018-07-12T08:17:39.861Z,1019.45
2018-07-12T08:18:39.847Z,1019.4
2018-07-12T08:19:39.976Z,1019.42
2018-07-12T08:20:39.963Z,1019.4
2018-07-12T08:21:39.855Z,1019.47
2018-07-12T08:22:39.847Z,1019.42
2018-07-12T08:23:39.945Z,1019.45
2018-07-12T08:24:39.996Z,1019.48
2018-07-12T08:25:39.871Z,1019.46
2018-07-12T08:26:39.899Z,1019.46
2018-07-12T08:27:39.957Z,1019.48
2018-07-12T08:28:39.920Z,1019.43
2018-07-12T08:29:39.953Z,1019.5
2018-07-12T08:30:39.917Z,1019.52
2018-07-12T08:31:39.923Z,1019.5
2018-07-12T08:32:40.058Z,1019.48
2018-07-12T08:33:39.951Z,1019.5
2018-07-12T08:34:39.984Z,1019.52
2018-07-12T08:35:39.891Z,1019.56
2018-07-12T08:36:39.985Z,1019.57
2018-07-12T08:37:39.999Z,1019.51
2018-07-12T08:38:39.896Z,1019.55
2018-07-12T08:39:40.005Z,1019.53
2018-07-12T08:40:40.109Z,1019.58
2018-07-12T08:41:40.096Z,1019.52
2018-07-12T08:42:40.124Z,1019.6
2018-07-12T08:43:40.016Z,1019.61
2018-07-12T08:44:40.075Z,1019.62
2018-07-12T08:45:40.160Z,1019.59
2018-07-12T08:46:40.049Z,1019.6
2018-07-12T08:47:39.979Z,1019.56
2018-07-12T08:48:39.967Z,1019.57
2018-07-12T08:49:39.999Z,1019.52
2018-07-12T08:50:39.965Z,1019.56
2018-07-12T08:51:39.968Z,1019.56
2018-07-12T08:52:39.939Z,1019.56
2018-07-12T08:53:39.923Z,1019.57
2018-07-12T08:54:40.114Z,1019.58
2018-07-12T08:55:39.872Z,1019.59
2018-07-12T08:56:39.957Z,1019.55
2018-07-12T08:57:39.905Z,1019.56
2018-07-12T08:58:40.045Z,1019.56
2018-07-12T08:59:39.975Z,1019.54
2018-07-12T09:00:40.125Z,1019.58
2018-07-12T09:01:39.961Z,1019.58
2018-07-12T09:02:40.041Z,1019.54
2018-07-12T09:03:40.050Z,1019.57
2018-07-12T09:04:40.104Z,1019.6
2018-07-12T09:05:40.055Z,1019.56
2018-07-12T09:06:39.958Z,1019.52
2018-07-12T09:07:39.949Z,1019.54
2018-07-12T09:08:39.960Z,1019.53
2018-07-12T09:09:39.911Z,1019.52
2018-07-12T09:10:39.941Z,1019.54
2018-07-12T09:11:39.949Z,1019.57
2018-07-12T09:12:40.048Z,1019.56
2018-07-12T09:13:39.905Z,1019.55
2018-07-12T09:14:39.943Z,1019.54
2018-07-12T09:15:40.011Z,1019.54
2018-07-12T09:16:39.896Z,1019.52
2018-07-12T09:17:39.895Z,1019.52
2018-07-12T09:18:39.931Z,1019.53
2018-07-12T09:19:39.919Z,1019.53
2018-07-12T09:20:39.955Z,1019.58
2018-07-12T09:21:39.976Z,1019.56
2018-07-12T09:22:39.932Z,1019.62
2018-07-12T09:23:39.909Z,1019.57
2018-07-12T09:24:39.880Z,1019.61
2018-07-12T09:25:39.922Z,1019.59
2018-07-12T09:26:39.944Z,1019.63
2018-07-12T09:27:39.900Z,1019.59
2018-07-12T09:28:39.884Z,1019.58
2018-07-12T09:29:39.953Z,1019.61
2018-07-12T09:30:39.970Z,1019.57
2018-07-12T09:31:39.919Z,1019.59
2018-07-12T09:32:39.951Z,1019.57
2018-07-12T09:33:39.959Z,1019.64
2018-07-12T09:34:39.930Z,1019.59
2018-07-12T09:35:39.966Z,1019.6
2018-07-12T09:36:40.081Z,1019.6
2018-07-12T09:37:39.908Z,1019.56
2018-07-12T09:38:40.025Z,1019.59
2018-07-12T09:39:40.052Z,1019.61
2018-07-12T09:40:40.019Z,1019.59
2018-07-12T09:41:39.908Z,1019.61
2018-07-12T09:42:40.052Z,1019.62
2018-07-12T09:43:39.925Z,1019.62
2018-07-12T09:44:40.047Z,1019.65
2018-07-12T09:45:39.928Z,1019.61
2018-07-12T09:46:39.923Z,1019.64
2018-07-12T09:47:40.136Z,1019.58
2018-07-12T09:48:39.988Z,1019.57
2018-07-12T09:49:39.940Z,1019.62
2018-07-12T09:50:39.977Z,1019.61
2018-07-12T09:51:39.981Z,1019.59
2018-07-12T09:52:39.998Z,1019.58
2018-07-12T09:53:39.930Z,1019.57
2018-07-12T09:54:39.989Z,1019.59
2018-07-12T09:55:40.384Z,1019.52
2018-07-12T09:56:40.112Z,1019.58
2018-07-12T09:57:42.150Z,1019.58
2018-07-12T09:58:39.999Z,1019.6
2018-07-12T09:59:39.921Z,1019.62
2018-07-12T10:00:40.142Z,1019.57
2018-07-12T10:01:39.976Z,1019.6
2018-07-12T10:02:39.931Z,1019.6
2018-07-12T10:03:39.946Z,1019.57
2018-07-12T10:04:40.511Z,1019.59
2018-07-12T10:05:40.427Z,1019.59
2018-07-12T10:06:40.114Z,1019.61
2018-07-12T10:07:39.958Z,1019.6
2018-07-12T10:08:40.109Z,1019.63
2018-07-12T10:09:39.976Z,1019.62
2018-07-12T10:10:40.261Z,1019.62
2018-07-12T10:11:40.048Z,1019.54
2018-07-12T10:12:39.949Z,1019.52
2018-07-12T10:13:39.969Z,1019.51
2018-07-12T10:14:40.290Z,1019.46
2018-07-12T10:15:39.934Z,1019.5
2018-07-12T10:16:39.908Z,1019.57
2018-07-12T10:17:39.957Z,1019.55
2018-07-12T10:18:40.013Z,1019.57
2018-07-12T10:19:39.930Z,1019.52
2018-07-12T10:20:39.941Z,1019.6
2018-07-12T10:21:39.961Z,1019.59
2018-07-12T10:22:39.937Z,1019.59
2018-07-12T10:23:40.613Z,1019.61
2018-07-12T10:24:39.984Z,1019.65
2018-07-12T10:25:39.965Z,1019.62
2018-07-12T10:26:39.962Z,1019.58
2018-07-12T10:27:39.939Z,1019.63
2018-07-12T10:28:39.926Z,1019.59
2018-07-12T10:29:40.023Z,1019.63
2018-07-12T10:30:40.205Z,1019.61
2018-07-12T10:31:39.958Z,1019.64
2018-07-12T10:32:39.944Z,1019.6
2018-07-12T10:33:39.949Z,1019.59
2018-07-12T10:34:39.935Z,1019.68
2018-07-12T10:35:39.970Z,1019.62
2018-07-12T10:36:39.956Z,1019.61
2018-07-12T10:37:39.952Z,1019.66
2018-07-12T10:38:39.950Z,1019.64
2018-07-12T10:39:39.960Z,1019.67
2018-07-12T10:40:39.947Z,1019.68
2018-07-12T10:41:39.962Z,1019.65
2018-07-12T10:42:39.957Z,1019.7
2018-07-12T10:43:39.964Z,1019.7
2018-07-12T10:44:39.939Z,1019.68
2018-07-12T10:45:40.049Z,1019.68
2018-07-12T10:46:40.138Z,1019.61
2018-07-12T10:47:39.951Z,1019.63
2018-07-12T10:48:39.951Z,1019.62
2018-07-12T10:49:40.127Z,1019.69
2018-07-12T10:50:39.973Z,1019.6
2018-07-12T10:51:39.953Z,1019.64
2018-07-12T10:52:40.021Z,1019.58
2018-07-12T10:53:39.988Z,1019.6
2018-07-12T10:54:40.287Z,1019.61
2018-07-12T10:55:40.062Z,1019.62
2018-07-12T10:56:40.235Z,1019.54
2018-07-12T10:57:39.964Z,1019.51
2018-07-12T10:58:40.011Z,1019.54
2018-07-12T10:59:39.964Z,1019.54
2018-07-12T11:00:40.190Z,1019.51
2018-07-12T11:01:40.062Z,1019.45
2018-07-12T11:02:40.223Z,1019.42
2018-07-12T11:03:39.970Z,1019.41
2018-07-12T11:04:40.131Z,1019.44
2018-07-12T11:05:40.349Z,1019.42
2018-07-12T11:06:40.031Z,1019.42
2018-07-12T11:07:40.011Z,1019.38
2018-07-12T11:08:40.038Z,1019.41
2018-07-12T11:09:40.011Z,1019.39
2018-07-12T11:10:40.062Z,1019.45
2018-07-12T11:11:40.246Z,1019.41
2018-07-12T11:12:40.049Z,1019.41
2018-07-12T11:13:40.015Z,1019.38
2018-07-12T11:14:40.223Z,1019.36
2018-07-12T11:15:40.123Z,1019.36
2018-07-12T11:16:40.116Z,1019.35
2018-07-12T11:17:40.072Z,1019.33
2018-07-12T11:18:40.040Z,1019.36
2018-07-12T11:19:40.238Z,1019.33
2018-07-12T11:20:40.143Z,1019.36
2018-07-12T11:21:40.028Z,1019.36
2018-07-12T11:22:40.467Z,1019.31
2018-07-12T11:23:40.166Z,1019.33
2018-07-12T11:24:40.264Z,1019.35
2018-07-12T11:25:40.063Z,1019.34
2018-07-12T11:26:40.174Z,1019.39
2018-07-12T11:27:40.286Z,1019.4
2018-07-12T11:28:40.195Z,1019.39
2018-07-12T11:29:40.210Z,1019.37
2018-07-12T11:30:40.308Z,1019.4
2018-07-12T11:31:40.210Z,1019.34
2018-07-12T11:32:41.355Z,1019.27
2018-07-12T11:33:40.131Z,1019.25
2018-07-12T11:34:40.042Z,1019.24
2018-07-12T11:35:40.005Z,1019.24
2018-07-12T11:36:41.287Z,1019.24
2018-07-12T11:37:40.463Z,1019.26
2018-07-12T11:38:40.085Z,1019.27
2018-07-12T11:39:40.175Z,1019.27
2018-07-12T11:40:40.073Z,1019.29
2018-07-12T11:41:40.496Z,1019.28
2018-07-12T11:42:40.294Z,1019.29
2018-07-12T11:43:40.263Z,1019.32
2018-07-12T11:44:41.215Z,1019.27
2018-07-12T11:45:40.012Z,1019.29
2018-07-12T11:46:40.114Z,1019.26
2018-07-12T11:47:40.008Z,1019.26
2018-07-12T11:48:40.148Z,1019.28
2018-07-12T11:49:39.972Z,1019.24
2018-07-12T11:50:39.995Z,1019.25
2018-07-12T11:51:40.206Z,1019.2
2018-07-12T11:52:40.244Z,1019.17
2018-07-12T11:53:40.078Z,1019.19
2018-07-12T11:54:40.171Z,1019.2
2018-07-12T11:55:40.035Z,1019.25
2018-07-12T11:56:39.989Z,1019.2
2018-07-12T11:57:40.091Z,1019.24
2018-07-12T11:58:40.023Z,1019.19
2018-07-12T11:59:40.012Z,1019.21
2018-07-12T12:00:40.108Z,1019.18
2018-07-12T12:01:40.195Z,1019.19
2018-07-12T12:02:40.051Z,1019.19
2018-07-12T12:03:40.048Z,1019.18
2018-07-12T12:04:40.195Z,1019.2
2018-07-12T12:05:40.062Z,1019.17
2018-07-12T12:06:40.040Z,1019.16
2018-07-12T12:07:40.110Z,1019.14
2018-07-12T12:08:40.246Z,1019.17